Time;durP1;ratioP1;P1;durP2;ratioP2;P2;SDS_P1;SDS_P2;PMS_P1;PMS_P2;Temp;Humidity;BMP_temperature;BMP_pressure;BME280_temperature;BME280_humidity;BME280_pressure;Samples;Min_cycle;Max_cycle;Signal;HPM_P1;HPM_P2
2022/04/07 00:01:08;;;;;;;3.85;2.15;;;10.10;94.00;;;;;;5086080;28;20024;-68
2022/04/07 00:03:34;;;;;;;2.35;1.42;;;10.10;93.90;;;;;;5090882;28;20464;-69
2022/04/07 00:06:00;;;;;;;0.30;0.30;;;10.10;94.10;;;;;;5090638;28;20027;-69
2022/04/07 00:08:26;;;;;;;1.13;1.00;;;10.10;94.10;;;;;;5073667;28;20105;-68
2022/04/07 00:10:52;;;;;;;0.20;0.20;;;10.10;94.10;;;;;;5083776;28;20456;-69
2022/04/07 00:13:18;;;;;;;0.68;0.68;;;10.10;94.10;;;;;;5090479;28;20024;-69
2022/04/07 00:15:44;;;;;;;2.17;1.00;;;10.10;94.20;;;;;;5090190;28;20055;-68
2022/04/07 00:18:09;;;;;;;0.35;0.35;;;10.10;94.30;;;;;;5090614;28;20048;-68
2022/04/07 00:20:35;;;;;;;1.13;0.93;;;10.10;94.30;;;;;;5090400;28;20157;-68
2022/04/07 00:23:01;;;;;;;2.38;2.05;;;10.10;94.40;;;;;;5077876;28;20028;-68
2022/04/07 00:25:27;;;;;;;4.68;1.63;;;10.10;94.50;;;;;;5070129;28;20049;-68
2022/04/07 00:27:53;;;;;;;1.95;1.30;;;10.10;94.60;;;;;;5070084;28;20032;-68
2022/04/07 00:30:21;;;;;;;13.55;6.18;;;10.00;94.60;;;;;;5079001;28;20028;-68
2022/04/07 00:32:48;;;;;;;1.65;1.48;;;10.10;94.60;;;;;;5093034;28;20057;-69
2022/04/07 00:35:14;;;;;;;0.20;0.20;;;10.10;94.60;;;;;;5094030;28;20059;-69
2022/04/07 00:37:40;;;;;;;38.90;1.25;;;10.00;94.60;;;;;;5085268;28;20068;-68
2022/04/07 00:40:08;;;;;;;3.42;3.10;;;10.10;94.40;;;;;;5080400;28;20434;-68
2022/04/07 00:42:33;;;;;;;3.03;2.50;;;10.10;94.40;;;;;;5094068;28;20028;-68
2022/04/07 00:45:00;;;;;;;0.30;0.30;;;10.10;94.30;;;;;;5093925;28;20035;-68
2022/04/07 00:47:27;;;;;;;9.88;0.65;;;10.10;94.40;;;;;;5094154;28;20023;-69
2022/04/07 00:49:54;;;;;;;2.08;1.98;;;10.10;94.40;;;;;;5093713;28;20031;-70
2022/04/07 00:52:20;;;;;;;0.20;0.20;;;10.10;94.50;;;;;;5088921;28;20086;-69
2022/04/07 00:54:46;;;;;;;0.40;0.40;;;10.10;94.50;;;;;;5073523;28;20029;-69
2022/04/07 00:57:13;;;;;;;10.50;0.57;;;10.10;94.50;;;;;;5073393;28;20388;-68
2022/04/07 00:59:40;;;;;;;6.65;0.57;;;10.10;94.40;;;;;;5075680;28;20488;-68
2022/04/07 01:02:06;;;;;;;0.55;0.55;;;10.00;94.50;;;;;;5092499;28;20052;-68
2022/04/07 01:04:33;;;;;;;0.20;0.20;;;10.10;94.40;;;;;;5090391;28;20020;-69
2022/04/07 01:06:59;;;;;;;3.50;1.10;;;10.10;94.50;;;;;;5090191;28;20024;-68
2022/04/07 01:09:25;;;;;;;0.40;0.40;;;10.10;94.50;;;;;;5073637;28;20069;-69
2022/04/07 01:11:52;;;;;;;1.25;1.20;;;10.00;94.50;;;;;;5093332;28;20448;-68
2022/04/07 01:14:18;;;;;;;0.20;0.20;;;10.00;94.60;;;;;;5089957;28;20024;-68
2022/04/07 01:16:44;;;;;;;1.08;0.43;;;10.10;94.50;;;;;;5090220;28;20040;-68
2022/04/07 01:19:10;;;;;;;0.30;0.30;;;10.10;94.50;;;;;;5090090;28;20031;-68
2022/04/07 01:21:37;;;;;;;0.77;0.77;;;10.00;94.80;;;;;;5089690;28;20084;-67
2022/04/07 01:24:07;;;;;;;3.70;3.20;;;10.00;95.20;;;;;;5073076;28;20032;-67
2022/04/07 01:26:38;;;;;;;9.30;1.27;;;9.80;97.10;;;;;;5069518;28;20295;-68
2022/04/07 01:29:06;;;;;;;0.68;0.68;;;9.70;97.20;;;;;;5069708;28;20025;-67
2022/04/07 01:31:32;;;;;;;0.47;0.47;;;9.70;99.90;;;;;;5085853;28;20024;-67
2022/04/07 01:34:00;;;;;;;5.90;2.80;;;9.60;99.90;;;;;;5089638;28;20031;-67
2022/04/07 01:36:28;;;;;;;0.50;0.50;;;9.60;99.90;;;;;;5089659;28;20537;-67
2022/04/07 01:38:56;;;;;;;0.25;0.25;;;9.60;99.90;;;;;;5074628;28;20028;-68
2022/04/07 01:41:22;;;;;;;22.75;3.00;;;9.70;99.90;;;;;;5085551;28;20035;-68
2022/04/07 01:43:50;;;;;;;0.30;0.30;;;9.60;99.90;;;;;;5088980;28;20475;-68
2022/04/07 01:46:17;;;;;;;1.38;1.27;;;9.60;99.90;;;;;;5089727;28;20376;-67
2022/04/07 01:48:44;;;;;;;1.05;1.05;;;9.60;99.90;;;;;;5089348;28;20111;-67
2022/04/07 01:51:12;;;;;;;0.68;0.52;;;9.50;99.90;;;;;;5089181;28;20039;-68
2022/04/07 01:53:38;;;;;;;0.20;0.20;;;9.50;99.90;;;;;;5077923;28;20021;-67
2022/04/07 01:56:05;;;;;;;0.32;0.32;;;9.40;99.90;;;;;;5068378;28;20024;-66
2022/04/07 01:58:31;;;;;;;1.45;1.38;;;9.40;99.90;;;;;;5068839;28;20060;-65
2022/04/07 02:00:57;;;;;;;3.22;3.03;;;9.30;99.90;;;;;;5081658;28;20058;-66
2022/04/07 02:03:23;;;;;;;0.20;0.20;;;9.30;99.90;;;;;;5089085;28;20496;-65
2022/04/07 02:05:49;;;;;;;0.45;0.45;;;9.30;99.90;;;;;;5087711;28;20373;-64
2022/04/07 02:08:15;;;;;;;2.80;2.13;;;9.20;99.90;;;;;;5081933;28;20465;-64
2022/04/07 02:10:40;;;;;;;0.30;0.30;;;9.20;99.90;;;;;;5078906;28;20059;-65
2022/04/07 02:13:06;;;;;;;1.13;1.02;;;9.20;99.90;;;;;;5088825;28;20472;-65
2022/04/07 02:15:32;;;;;;;0.68;0.68;;;9.10;99.90;;;;;;5088647;28;20274;-65
2022/04/07 02:17:58;;;;;;;0.20;0.20;;;9.10;99.90;;;;;;5088551;28;20051;-65
2022/04/07 02:20:23;;;;;;;0.90;0.90;;;9.10;99.90;;;;;;5077663;28;20040;-64
2022/04/07 02:22:49;;;;;;;0.20;0.20;;;9.10;99.90;;;;;;5068252;28;20120;-65
2022/04/07 02:25:15;;;;;;;1.00;0.85;;;9.10;99.90;;;;;;5068509;28;20100;-64
2022/04/07 02:27:44;;;;;;;1.42;1.38;;;9.10;99.90;;;;;;5068613;28;20169;-64
2022/04/07 02:30:14;;;;;;;0.35;0.35;;;9.10;99.90;;;;;;5075649;28;20276;-65
2022/04/07 02:32:40;;;;;;;9.32;1.30;;;9.10;99.90;;;;;;5088686;28;20059;-65
2022/04/07 02:35:07;;;;;;;0.20;0.20;;;9.10;99.90;;;;;;5082313;28;20347;-65
2022/04/07 02:37:33;;;;;;;1.88;1.77;;;9.10;99.90;;;;;;5071858;28;20047;-69
2022/04/07 02:39:59;;;;;;;0.68;0.68;;;9.20;99.90;;;;;;5077358;28;20095;-67
2022/04/07 02:42:24;;;;;;;23.30;1.20;;;9.10;99.90;;;;;;5091695;28;20365;-67
2022/04/07 02:44:50;;;;;;;18.42;1.15;;;9.10;99.90;;;;;;5090185;28;20062;-67
2022/04/07 02:47:17;;;;;;;0.30;0.30;;;9.20;99.90;;;;;;5091623;28;20024;-64
2022/04/07 02:49:43;;;;;;;0.55;0.55;;;9.20;99.90;;;;;;5088525;28;20580;-75
2022/04/07 02:52:10;;;;;;;3.65;2.28;;;9.20;99.90;;;;;;5069339;28;20423;-76
2022/04/07 02:54:37;;;;;;;0.57;0.47;;;9.20;99.90;;;;;;5067046;28;20100;-75
2022/04/07 02:57:03;;;;;;;0.20;0.20;;;9.20;99.90;;;;;;5068678;28;20041;-75
2022/04/07 02:59:30;;;;;;;0.40;0.40;;;9.20;99.90;;;;;;5069299;28;20447;-74
2022/04/07 03:01:58;;;;;;;0.25;0.25;;;9.40;99.90;;;;;;5089694;28;20099;-73
2022/04/07 03:04:24;;;;;;;0.38;0.38;;;9.40;99.90;;;;;;5090250;28;20254;-73
2022/04/07 03:06:53;;;;;;;0.20;0.20;;;9.40;99.90;;;;;;5071463;28;20232;-72
2022/04/07 03:09:19;;;;;;;1.02;1.02;;;9.40;99.90;;;;;;5071437;28;20032;-74
2022/04/07 03:11:48;;;;;;;1.55;0.63;;;11.20;99.90;;;;;;5071170;28;20058;-73
2022/04/07 03:14:14;;;;;;;15.55;3.90;;;11.80;99.90;;;;;;5070766;28;20056;-73
2022/04/07 03:16:41;;;;;;;0.20;0.20;;;11.80;99.90;;;;;;5071176;28;20071;-74
2022/04/07 03:19:07;;;;;;;1.33;1.23;;;11.80;99.90;;;;;;5071069;28;20032;-76
2022/04/07 03:21:33;;;;;;;0.20;0.20;;;12.00;99.90;;;;;;5072682;28;20070;-77
2022/04/07 03:23:59;;;;;;;1.10;1.10;;;11.80;99.90;;;;;;5071069;28;20095;-76
2022/04/07 03:26:24;;;;;;;0.75;0.68;;;11.80;99.90;;;;;;5070985;28;20473;-79
2022/04/07 03:28:50;;;;;;;0.20;0.20;;;11.60;99.90;;;;;;5071083;28;20036;-77
2022/04/07 03:31:16;;;;;;;0.30;0.30;;;11.40;99.90;;;;;;5086845;28;20090;-77
2022/04/07 03:33:41;;;;;;;0.20;0.20;;;11.70;99.90;;;;;;5090945;28;20027;-79
2022/04/07 03:36:07;;;;;;;0.88;0.88;;;12.90;99.90;;;;;;5078683;28;20469;-81
2022/04/07 03:38:33;;;;;;;0.20;0.20;;;13.80;99.90;;;;;;5069551;28;20263;-80
2022/04/07 03:40:59;;;;;;;1.05;0.80;;;16.00;99.90;;;;;;5084435;28;20149;-80
2022/04/07 03:43:24;;;;;;;0.40;0.40;;;16.80;99.90;;;;;;5090950;28;20031;-79
2022/04/07 03:45:50;;;;;;;0.20;0.20;;;16.80;99.90;;;;;;5090971;28;20484;-75
2022/04/07 03:48:16;;;;;;;0.40;0.40;;;16.80;99.90;;;;;;5091003;28;20081;-75
2022/04/07 03:50:41;;;;;;;0.20;0.20;;;16.40;99.90;;;;;;5082949;28;20056;-76
2022/04/07 03:53:07;;;;;;;0.20;0.20;;;16.80;99.90;;;;;;5070762;28;20104;-77
2022/04/07 03:55:34;;;;;;;0.20;0.20;;;16.10;99.90;;;;;;5070543;28;20028;-77
2022/04/07 03:57:59;;;;;;;0.20;0.20;;;15.50;99.90;;;;;;5075153;28;20036;-78
2022/04/07 04:00:28;;;;;;;2.72;2.63;;;16.20;99.90;;;;;;5090615;28;20113;-80
2022/04/07 04:02:54;;;;;;;0.20;0.20;;;15.70;99.90;;;;;;5082759;28;20078;-80
2022/04/07 04:05:20;;;;;;;0.30;0.30;;;15.90;99.90;;;;;;5071531;28;20103;-77
2022/04/07 04:07:45;;;;;;;2.90;1.58;;;15.10;99.90;;;;;;5074424;28;20036;-78
2022/04/07 04:10:11;;;;;;;0.30;0.30;;;14.30;99.90;;;;;;5082072;28;20405;-78
2022/04/07 04:12:37;;;;;;;0.20;0.20;;;13.90;99.90;;;;;;5090486;28;20028;-77
2022/04/07 04:15:04;;;;;;;0.28;0.28;;;14.80;99.90;;;;;;5094100;28;20044;-77
2022/04/07 04:17:30;;;;;;;0.20;0.20;;;15.50;99.90;;;;;;5086582;28;20060;-79
2022/04/07 04:19:56;;;;;;;0.20;0.20;;;15.40;99.90;;;;;;5087922;28;20092;-81
2022/04/07 04:22:22;;;;;;;0.15;0.15;;;15.10;99.90;;;;;;5079955;28;20391;-82
2022/04/07 04:24:48;;;;;;;0.20;0.20;;;14.90;99.90;;;;;;5082186;28;20047;-83
2022/04/07 04:27:14;;;;;;;0.20;0.20;;;14.80;99.90;;;;;;5074286;28;20029;-87
2022/04/07 04:29:40;;;;;;;0.20;0.20;;;14.90;99.90;;;;;;5093085;28;20051;-84
2022/04/07 04:32:06;;;;;;;0.20;0.20;;;13.10;99.90;;;;;;5083073;28;20456;-86
2022/04/07 04:34:32;;;;;;;0.20;0.20;;;14.40;99.90;;;;;;5090595;28;20500;-87
2022/04/07 04:36:58;;;;;;;0.20;0.20;;;14.80;99.90;;;;;;5091019;28;20036;-85
2022/04/07 04:39:24;;;;;;;0.20;0.20;;;15.20;99.90;;;;;;5098505;28;20028;-87
2022/04/07 04:41:50;;;;;;;0.10;0.10;;;15.30;99.90;;;;;;5093852;28;20020;-90
2022/04/07 04:44:16;;;;;;;0.10;0.10;;;15.10;99.90;;;;;;5092886;28;20074;-84
2022/04/07 04:46:42;;;;;;;0.10;0.10;;;15.30;99.90;;;;;;5093979;28;20107;-85
2022/04/07 04:49:07;;;;;;;0.20;0.20;;;15.30;99.90;;;;;;5094310;28;20502;-84
2022/04/07 04:51:33;;;;;;;0.10;0.10;;;15.30;99.90;;;;;;5092579;28;20020;-85
2022/04/07 04:53:59;;;;;;;0.20;0.20;;;15.30;99.90;;;;;;5078107;28;20282;-85
2022/04/07 04:56:27;;;;;;;0.20;0.20;;;15.20;99.90;;;;;;5071995;28;20028;-86
2022/04/07 04:58:53;;;;;;;0.15;0.15;;;15.20;99.90;;;;;;5074011;28;20064;-86
2022/04/07 05:01:19;;;;;;;0.20;0.20;;;15.30;99.90;;;;;;5085608;28;20027;-88
2022/04/07 05:03:45;;;;;;;0.10;0.10;;;15.30;99.90;;;;;;5090892;28;20032;-88
2022/04/07 05:06:11;;;;;;;0.10;0.10;;;14.80;99.90;;;;;;5090955;28;20020;-88
2022/04/07 05:08:36;;;;;;;0.20;0.20;;;15.20;99.90;;;;;;5082086;28;20025;-88
2022/04/07 05:11:02;;;;;;;0.17;0.17;;;13.40;99.90;;;;;;5086542;28;20119;-90
2022/04/07 05:13:28;;;;;;;0.20;0.20;;;14.00;99.90;;;;;;5094575;28;20024;-92
2022/04/07 05:15:53;;;;;;;0.20;0.20;;;14.50;99.90;;;;;;5095209;28;20100;-94
2022/04/07 05:18:19;;;;;;;0.10;0.10;;;14.90;99.90;;;;;;5099763;28;20093;-96
2022/04/07 05:20:45;;;;;;;0.10;0.10;;;15.20;99.90;;;;;;5086766;28;20025;-94
2022/04/07 05:23:11;;;;;;;3.95;1.52;;;15.40;99.90;;;;;;5082379;28;20024;-95
2022/04/07 05:25:36;;;;;;;0.20;0.20;;;15.60;99.90;;;;;;5094605;28;20364;-93
2022/04/07 05:28:02;;;;;;;0.20;0.20;;;15.90;99.90;;;;;;5106273;28;20023;-89
2022/04/07 05:30:28;;;;;;;0.20;0.20;;;16.00;99.90;;;;;;5091831;28;20044;-89
2022/04/07 05:32:54;;;;;;;0.15;0.15;;;16.10;99.90;;;;;;5073015;28;20020;-88
2022/04/07 05:35:19;;;;;;;0.57;0.57;;;16.20;99.90;;;;;;5069858;28;20144;-86
2022/04/07 05:37:46;;;;;;;0.20;0.20;;;16.40;99.90;;;;;;5073273;28;20033;-84
2022/04/07 05:40:12;;;;;;;0.10;0.10;;;16.40;99.90;;;;;;5078010;28;20079;-83
2022/04/07 05:42:39;;;;;;;0.10;0.10;;;16.50;99.90;;;;;;5089873;28;20024;-81
2022/04/07 05:45:05;;;;;;;0.30;0.30;;;16.60;99.90;;;;;;5089457;28;20043;-80
2022/04/07 05:47:37;;;;;;;0.10;0.10;;;16.60;99.90;;;;;;5091271;28;20032;-81
2022/04/07 05:50:03;;;;;;;0.10;0.10;;;16.40;99.90;;;;;;5089418;28;20058;-81
2022/04/07 05:52:29;;;;;;;0.10;0.10;;;16.20;99.90;;;;;;5089645;28;20033;-80
2022/04/07 05:54:55;;;;;;;0.10;0.10;;;15.60;99.90;;;;;;5070143;28;20031;-80
2022/04/07 05:57:22;;;;;;;0.65;0.65;;;15.20;99.90;;;;;;5051025;28;20089;-79
2022/04/07 05:59:48;;;;;;;0.40;0.35;;;10.60;99.90;;;;;;5070726;28;20092;-79
2022/04/07 06:02:13;;;;;;;3.40;3.22;;;8.80;99.90;;;;;;5089349;28;20460;-80
2022/04/07 06:04:40;;;;;;;1.52;0.55;;;9.10;99.90;;;;;;5089503;28;20488;-80
2022/04/07 06:07:07;;;;;;;0.15;0.15;;;9.60;99.90;;;;;;5087712;28;20076;-81
2022/04/07 06:09:34;;;;;;;0.20;0.20;;;9.70;99.90;;;;;;5076527;28;20063;-81
2022/04/07 06:12:00;;;;;;;0.10;0.10;;;10.40;99.90;;;;;;5091883;28;20035;-81
2022/04/07 06:14:26;;;;;;;0.20;0.20;;;10.50;99.90;;;;;;5092292;28;20384;-82
2022/04/07 06:16:51;;;;;;;0.10;0.10;;;11.10;99.90;;;;;;5092306;28;20486;-78
2022/04/07 06:19:17;;;;;;;0.50;0.50;;;12.00;99.90;;;;;;5092262;28;20616;-79
2022/04/07 06:21:43;;;;;;;0.20;0.20;;;12.50;99.90;;;;;;5092010;28;20024;-77
2022/04/07 06:24:09;;;;;;;0.13;0.13;;;13.20;99.90;;;;;;5081500;28;20040;-77
2022/04/07 06:26:35;;;;;;;0.20;0.20;;;13.80;99.90;;;;;;5071497;28;20060;-78
2022/04/07 06:29:00;;;;;;;0.10;0.10;;;13.80;99.90;;;;;;5072345;28;20025;-81
2022/04/07 06:31:26;;;;;;;13.73;2.20;;;13.90;99.90;;;;;;5087494;28;20575;-79
2022/04/07 06:33:52;;;;;;;0.45;0.45;;;13.80;99.90;;;;;;5091346;28;20111;-80
2022/04/07 06:36:18;;;;;;;0.10;0.10;;;14.20;99.90;;;;;;5092405;28;20477;-79
2022/04/07 06:38:43;;;;;;;0.35;0.35;;;15.70;99.90;;;;;;5085802;28;20048;-79
2022/04/07 06:41:09;;;;;;;0.10;0.10;;;15.40;99.90;;;;;;5084615;28;20376;-79
2022/04/07 06:43:35;;;;;;;0.10;0.10;;;15.30;99.90;;;;;;5092470;28;20564;-80
2022/04/07 06:46:01;;;;;;;0.20;0.20;;;15.60;99.90;;;;;;5091988;28;20043;-79
2022/04/07 06:48:26;;;;;;;0.20;0.20;;;15.40;99.90;;;;;;5092066;28;20059;-81
2022/04/07 06:50:52;;;;;;;0.20;0.20;;;15.70;99.90;;;;;;5091540;28;20036;-83
2022/04/07 06:53:18;;;;;;;1.48;1.40;;;15.70;99.90;;;;;;5087059;28;20060;-83
2022/04/07 06:55:43;;;;;;;0.50;0.50;;;15.80;99.90;;;;;;5069794;28;20028;-83
2022/04/07 06:58:10;;;;;;;0.35;0.35;;;15.60;99.90;;;;;;5071878;28;20033;-82
2022/04/07 07:00:45;;;;;;;0.20;0.20;;;15.60;99.90;;;;;;5079642;28;20062;-80
2022/04/07 07:03:14;;;;;;;0.28;0.28;;;15.00;99.90;;;;;;5089145;28;20397;-80
2022/04/07 07:05:40;;;;;;;6.65;2.17;;;14.40;99.90;;;;;;5089062;28;20055;-81
2022/04/07 07:08:16;;;;;;;0.20;0.20;;;14.60;99.90;;;;;;5091507;28;20456;-79
2022/04/07 07:10:43;;;;;;;0.20;0.20;;;14.70;99.90;;;;;;5071467;28;20032;-79
2022/04/07 07:13:08;;;;;;;0.20;0.20;;;14.90;99.90;;;;;;5072312;28;20017;-84
2022/04/07 07:15:35;;;;;;;1.63;1.58;;;15.00;99.90;;;;;;5072407;28;20453;-84
2022/04/07 07:18:00;;;;;;;0.20;0.20;;;14.50;99.90;;;;;;5072230;28;20037;-80
2022/04/07 07:20:26;;;;;;;0.20;0.20;;;14.40;99.90;;;;;;5071549;28;20028;-80
2022/04/07 07:22:52;;;;;;;0.28;0.28;;;14.20;99.90;;;;;;5069686;28;20024;-78
2022/04/07 07:25:17;;;;;;;0.20;0.20;;;14.20;99.90;;;;;;5070154;28;20028;-79
2022/04/07 07:27:45;;;;;;;0.20;0.20;;;14.30;99.90;;;;;;5071107;28;20020;-78
2022/04/07 07:30:12;;;;;;;1.30;1.20;;;14.30;99.90;;;;;;5074988;28;20027;-78
2022/04/07 07:32:46;;;;;;;0.30;0.30;;;13.90;99.90;;;;;;5091314;28;20027;-78
2022/04/07 07:35:13;;;;;;;0.30;0.30;;;13.80;99.90;;;;;;5091620;28;20050;-77
2022/04/07 07:37:51;;;;;;;0.30;0.30;;;13.60;99.90;;;;;;5091512;28;20043;-78
2022/04/07 07:40:20;;;;;;;0.28;0.28;;;13.40;99.90;;;;;;5079522;28;20044;-80
2022/04/07 07:42:47;;;;;;;0.30;0.30;;;13.30;99.90;;;;;;5090887;28;20099;-81
2022/04/07 07:45:14;;;;;;;5.65;1.13;;;13.30;99.90;;;;;;5089835;28;20058;-80
2022/04/07 07:47:40;;;;;;;0.82;0.73;;;13.10;99.90;;;;;;5090461;28;20059;-80
2022/04/07 07:50:06;;;;;;;0.20;0.20;;;13.30;99.90;;;;;;5089705;28;20055;-81
2022/04/07 07:52:32;;;;;;;0.22;0.22;;;13.40;99.90;;;;;;5090641;28;20113;-80
2022/04/07 07:54:58;;;;;;;0.95;0.95;;;13.20;99.90;;;;;;5078749;28;20097;-80
2022/04/07 07:57:24;;;;;;;0.30;0.30;;;13.50;99.90;;;;;;5070432;28;20037;-82
2022/04/07 07:59:51;;;;;;;0.20;0.20;;;13.30;99.90;;;;;;5070978;28;20028;-80
2022/04/07 08:02:18;;;;;;;0.30;0.30;;;13.10;99.90;;;;;;5090746;28;20059;-79
2022/04/07 08:04:44;;;;;;;0.40;0.40;;;13.10;99.90;;;;;;5090780;28;20021;-80
2022/04/07 08:07:11;;;;;;;0.30;0.30;;;12.90;99.90;;;;;;5090423;28;20023;-80
2022/04/07 08:09:37;;;;;;;0.52;0.52;;;13.30;99.90;;;;;;5082347;28;20021;-79
2022/04/07 08:12:03;;;;;;;0.30;0.30;;;13.00;99.90;;;;;;5070612;28;20031;-80
2022/04/07 08:14:30;;;;;;;0.20;0.20;;;12.90;99.90;;;;;;5070532;28;20029;-79
2022/04/07 08:16:56;;;;;;;0.30;0.30;;;13.00;99.90;;;;;;5069972;28;20292;-79
2022/04/07 08:19:22;;;;;;;0.90;0.55;;;12.80;99.90;;;;;;5070476;28;20028;-79
2022/04/07 08:21:48;;;;;;;0.60;0.60;;;12.50;99.90;;;;;;5071334;28;20037;-79
2022/04/07 08:24:19;;;;;;;0.20;0.20;;;12.70;99.90;;;;;;5070598;28;20025;-85
2022/04/07 08:26:45;;;;;;;2.28;1.20;;;12.70;99.90;;;;;;5069222;28;20021;-78
2022/04/07 08:29:11;;;;;;;0.30;0.30;;;12.50;99.90;;;;;;5070339;28;20033;-79
2022/04/07 08:31:36;;;;;;;0.20;0.20;;;12.70;99.90;;;;;;5084881;28;20099;-79
2022/04/07 08:34:02;;;;;;;0.20;0.20;;;12.50;99.90;;;;;;5086737;28;20150;-80
2022/04/07 08:36:28;;;;;;;0.20;0.20;;;12.60;99.90;;;;;;5070150;28;20020;-80
2022/04/07 08:38:53;;;;;;;0.20;0.20;;;12.50;99.90;;;;;;5070189;28;20499;-79
2022/04/07 08:41:20;;;;;;;1.48;1.38;;;12.70;99.90;;;;;;5082564;28;20032;-78
2022/04/07 08:43:46;;;;;;;0.65;0.32;;;12.70;99.90;;;;;;5090434;28;20069;-78
2022/04/07 08:46:13;;;;;;;0.20;0.20;;;12.50;99.90;;;;;;5090295;28;20050;-78
2022/04/07 08:48:43;;;;;;;0.35;0.35;;;12.40;99.90;;;;;;5090516;28;20024;-79
2022/04/07 08:51:10;;;;;;;0.32;0.32;;;12.70;99.90;;;;;;5090195;28;20430;-78
2022/04/07 08:53:38;;;;;;;0.22;0.22;;;12.40;99.90;;;;;;5092835;28;20024;-79
2022/04/07 08:56:05;;;;;;;7.25;3.80;;;12.50;99.90;;;;;;5093969;28;20380;-79
2022/04/07 08:58:31;;;;;;;0.98;0.98;;;12.80;99.90;;;;;;5086454;28;20036;-79
2022/04/07 09:00:57;;;;;;;5.50;5.07;;;12.80;99.90;;;;;;5086333;28;20053;-79
2022/04/07 09:03:22;;;;;;;4.95;1.13;;;13.00;99.90;;;;;;5078675;28;20511;-78
2022/04/07 09:05:54;;;;;;;0.30;0.30;;;12.70;99.90;;;;;;5079042;28;20496;-77
2022/04/07 09:08:20;;;;;;;1.03;0.93;;;12.90;99.90;;;;;;5070510;28;20044;-77
2022/04/07 09:10:54;;;;;;;0.47;0.47;;;13.00;99.90;;;;;;5077170;28;20384;-78
2022/04/07 09:13:20;;;;;;;5.85;0.55;;;12.80;99.90;;;;;;5090138;28;20034;-78
2022/04/07 09:15:47;;;;;;;0.40;0.40;;;12.90;99.90;;;;;;5089590;28;20051;-78
2022/04/07 09:18:13;;;;;;;0.20;0.20;;;13.10;99.90;;;;;;5090024;28;20040;-79
2022/04/07 09:20:42;;;;;;;1.85;1.33;;;13.00;99.90;;;;;;5089830;28;20031;-76
2022/04/07 09:23:11;;;;;;;0.20;0.20;;;12.80;99.90;;;;;;5089668;28;20036;-78
2022/04/07 09:25:43;;;;;;;0.47;0.47;;;12.90;99.90;;;;;;5090134;28;20372;-76
2022/04/07 09:28:11;;;;;;;0.40;0.40;;;12.60;99.90;;;;;;5089757;28;20020;-78
2022/04/07 09:30:41;;;;;;;0.20;0.20;;;12.70;99.90;;;;;;5088206;28;20505;-79
2022/04/07 09:33:22;;;;;;;0.20;0.20;;;12.80;99.90;;;;;;5089553;28;20016;-79
2022/04/07 09:36:06;;;;;;;0.23;0.23;;;13.00;99.90;;;;;;5089983;28;20043;-78
2022/04/07 09:38:34;;;;;;;1.95;1.85;;;13.20;99.90;;;;;;5089711;28;20284;-78
2022/04/07 09:41:19;;;;;;;0.30;0.30;;;13.20;99.90;;;;;;5089081;28;20024;-78
2022/04/07 09:43:59;;;;;;;3.17;0.65;;;13.40;99.90;;;;;;5089601;28;20389;-78
2022/04/07 09:46:31;;;;;;;0.20;0.20;;;13.50;99.90;;;;;;5089243;28;20020;-78
2022/04/07 09:49:08;;;;;;;0.30;0.30;;;13.30;99.90;;;;;;5089021;28;20020;-81
2022/04/07 09:51:45;;;;;;;0.98;0.65;;;13.50;99.90;;;;;;5089139;28;20028;-76
2022/04/07 09:54:11;;;;;;;0.40;0.40;;;13.00;99.90;;;;;;5089471;28;20028;-78
2022/04/07 09:56:37;;;;;;;0.20;0.20;;;13.10;99.90;;;;;;5089374;28;20016;-77
2022/04/07 09:59:06;;;;;;;0.30;0.30;;;13.00;99.90;;;;;;5088350;28;20074;-79
2022/04/07 10:01:33;;;;;;;0.20;0.20;;;13.10;99.90;;;;;;5088954;28;20024;-77
2022/04/07 10:03:58;;;;;;;0.25;0.25;;;13.10;99.90;;;;;;5088686;28;20381;-78
2022/04/07 10:06:25;;;;;;;0.20;0.20;;;12.70;99.90;;;;;;5089255;28;20024;-77
2022/04/07 10:08:51;;;;;;;0.20;0.20;;;12.80;99.90;;;;;;5089475;28;20016;-79
2022/04/07 10:11:18;;;;;;;0.20;0.20;;;12.90;99.90;;;;;;5089037;28;20078;-79
2022/04/07 10:13:48;;;;;;;0.45;0.45;;;13.00;99.90;;;;;;5088688;28;20159;-79
2022/04/07 10:16:16;;;;;;;0.57;0.57;;;12.90;99.90;;;;;;5088814;28;20135;-77
2022/04/07 10:18:57;;;;;;;0.20;0.20;;;12.90;99.90;;;;;;5088454;28;20127;-79
2022/04/07 10:21:55;;;;;;;0.95;0.60;;;12.90;99.90;;;;;;5088489;28;20392;-77
2022/04/07 10:24:34;;;;;;;0.63;0.63;;;13.10;99.90;;;;;;5088843;28;20095;-76
2022/04/07 10:27:02;;;;;;;1.60;1.50;;;13.10;99.90;;;;;;5088648;28;20020;-78
2022/04/07 10:29:29;;;;;;;0.20;0.20;;;13.10;99.90;;;;;;5088210;28;20027;-79
2022/04/07 10:32:18;;;;;;;0.20;0.20;;;13.00;99.90;;;;;;5091066;28;20067;-80
2022/04/07 10:34:57;;;;;;;0.35;0.35;;;13.10;99.90;;;;;;5091839;28;20032;-79
2022/04/07 10:37:51;;;;;;;0.20;0.20;;;13.20;99.90;;;;;;5090304;28;20374;-78
2022/04/07 10:40:36;;;;;;;0.85;0.85;;;13.60;99.90;;;;;;5091522;28;20119;-79
2022/04/07 10:43:10;;;;;;;2.75;1.20;;;13.30;99.90;;;;;;5091911;28;20028;-78
2022/04/07 10:45:40;;;;;;;0.70;0.70;;;13.30;99.90;;;;;;5091623;28;20024;-78
2022/04/07 10:48:25;;;;;;;2.60;1.80;;;13.30;99.90;;;;;;5085524;28;20209;-78
2022/04/07 10:50:56;;;;;;;0.20;0.20;;;13.40;99.90;;;;;;5076372;28;20059;-78
2022/04/07 10:53:36;;;;;;;0.30;0.30;;;13.30;99.90;;;;;;5091327;28;20031;-79
2022/04/07 10:56:34;;;;;;;0.30;0.30;;;13.40;99.90;;;;;;5091736;28;20020;-78
2022/04/07 10:59:20;;;;;;;0.20;0.20;;;13.50;99.90;;;;;;5091950;28;20028;-78
2022/04/07 11:01:59;;;;;;;0.45;0.45;;;13.50;99.90;;;;;;5091859;28;20016;-78
2022/04/07 11:04:25;;;;;;;0.20;0.20;;;13.70;99.90;;;;;;5071170;28;20050;-79
2022/04/07 11:07:07;;;;;;;0.20;0.20;;;13.80;99.90;;;;;;5070962;28;20016;-79
2022/04/07 11:09:48;;;;;;;;;;;14.00;99.90;;;;;;5068623;28;20074;-79
2022/04/07 11:12:29;;;;;;;0.30;0.30;;;13.80;99.90;;;;;;5086273;28;19955;-79
2022/04/07 11:15:01;;;;;;;0.25;0.25;;;13.60;99.90;;;;;;5087934;28;20048;-79
2022/04/07 11:17:31;;;;;;;0.28;0.28;;;13.80;99.90;;;;;;5084034;28;20064;-79
2022/04/07 11:20:18;;;;;;;3.83;2.25;;;14.00;99.90;;;;;;5067391;28;20497;-78
2022/04/07 11:22:46;;;;;;;1.38;1.27;;;13.80;99.90;;;;;;5083512;28;20048;-79
2022/04/07 11:25:33;;;;;;;0.22;0.22;;;13.80;99.90;;;;;;5066782;28;20028;-79
2022/04/07 11:28:22;;;;;;;0.73;0.73;;;13.70;99.90;;;;;;5067327;28;20481;-81
2022/04/07 11:30:49;;;;;;;0.95;0.68;;;13.90;99.90;;;;;;5072559;28;20063;-80
2022/04/07 11:33:27;;;;;;;0.60;0.60;;;13.90;99.90;;;;;;5086876;28;20496;-80
2022/04/07 11:36:04;;;;;;;0.20;0.20;;;13.90;99.90;;;;;;5087612;28;20020;-79
2022/04/07 11:38:34;;;;;;;0.20;0.20;;;13.90;99.90;;;;;;5087978;28;20119;-79
2022/04/07 11:41:01;;;;;;;0.20;0.20;;;14.20;99.90;;;;;;5087658;28;20018;-77
2022/04/07 11:43:27;;;;;;;0.65;0.65;;;14.10;99.90;;;;;;5087913;28;20055;-78
2022/04/07 11:45:54;;;;;;;0.20;0.20;;;14.30;99.90;;;;;;5087937;28;20042;-78
2022/04/07 11:48:21;;;;;;;1.45;1.20;;;14.40;99.90;;;;;;5078455;28;20051;-78
2022/04/07 11:50:46;;;;;;;22.10;1.73;;;14.50;99.90;;;;;;5073235;28;20641;-79
2022/04/07 11:53:12;;;;;;;0.68;0.68;;;14.50;99.90;;;;;;5087728;28;20035;-79
2022/04/07 11:55:38;;;;;;;5.55;2.45;;;14.40;99.90;;;;;;5088042;28;20024;-79
2022/04/07 11:58:04;;;;;;;4.70;1.10;;;14.60;99.90;;;;;;5087917;28;20066;-79
2022/04/07 12:00:31;;;;;;;1.10;1.00;;;14.70;99.90;;;;;;5087301;28;20039;-79
2022/04/07 12:03:01;;;;;;;0.20;0.20;;;15.10;99.90;;;;;;5081260;28;20594;-80
2022/04/07 12:05:27;;;;;;;0.68;0.68;;;15.50;99.90;;;;;;5067568;28;20591;-80
2022/04/07 12:08:13;;;;;;;0.52;0.35;;;15.80;99.90;;;;;;5068031;28;20108;-79
2022/04/07 12:10:41;;;;;;;4.93;0.70;;;15.90;99.90;;;;;;5071848;28;20035;-80
2022/04/07 12:13:07;;;;;;;3.90;1.38;;;15.50;99.90;;;;;;5086078;28;20103;-79
2022/04/07 12:15:37;;;;;;;0.20;0.20;;;15.40;99.90;;;;;;5087229;28;20077;-81
2022/04/07 12:18:06;;;;;;;3.92;1.67;;;15.70;99.90;;;;;;5082989;28;20043;-81
2022/04/07 12:20:33;;;;;;;0.30;0.30;;;15.50;99.90;;;;;;5070277;28;20165;-80
2022/04/07 12:23:07;;;;;;;0.40;0.40;;;15.30;99.90;;;;;;5088004;28;20114;-81
2022/04/07 12:25:33;;;;;;;0.22;0.22;;;15.60;99.90;;;;;;5087510;28;20032;-80
2022/04/07 12:28:12;;;;;;;4.03;1.52;;;15.50;99.90;;;;;;5091519;28;20111;-80
2022/04/07 12:30:42;;;;;;;0.90;0.63;;;15.40;99.90;;;;;;5092198;28;20057;-80
2022/04/07 12:33:08;;;;;;;1.02;0.73;;;15.30;99.90;;;;;;5087690;28;20039;-80
2022/04/07 12:35:48;;;;;;;2.72;2.47;;;15.50;99.90;;;;;;5070076;28;20028;-78
2022/04/07 12:38:13;;;;;;;0.20;0.20;;;15.40;99.90;;;;;;5071039;28;20033;-80
2022/04/07 12:40:39;;;;;;;3.35;1.65;;;15.40;99.90;;;;;;5075038;28;20023;-80
2022/04/07 12:43:05;;;;;;;0.50;0.50;;;15.50;99.90;;;;;;5090849;28;20078;-79
2022/04/07 12:45:31;;;;;;;1.85;0.93;;;15.10;99.90;;;;;;5091278;28;20065;-79
2022/04/07 12:48:08;;;;;;;14.15;1.85;;;14.70;99.90;;;;;;5088050;28;20408;-79
2022/04/07 12:50:34;;;;;;;0.40;0.40;;;14.50;99.90;;;;;;5073251;28;20020;-79
2022/04/07 12:53:00;;;;;;;0.65;0.65;;;14.70;99.90;;;;;;5090141;28;20084;-81